sensor_id;sensor_type;location;lat;lon;timestamp;P1;durP1;ratioP1;P2;durP2;ratioP2
64651;SDS011;51062;45.120;37.660;2022-08-11T00:01:45;12.73;;;3.65;;
64651;SDS011;51062;45.120;37.660;2022-08-11T00:04:18;6.22;;;3.10;;
64651;SDS011;51062;45.120;37.660;2022-08-11T00:06:48;10.07;;;3.17;;
64651;SDS011;51062;45.120;37.660;2022-08-11T00:09:15;6.93;;;2.95;;
64651;SDS011;51062;45.120;37.660;2022-08-11T00:11:48;9.27;;;3.25;;
64651;SDS011;51062;45.120;37.660;2022-08-11T00:14:20;8.70;;;3.42;;
64651;SDS011;51062;45.120;37.660;2022-08-11T00:16:59;6.55;;;3.20;;
64651;SDS011;51062;45.120;37.660;2022-08-11T00:19:29;10.55;;;3.45;;
64651;SDS011;51062;45.120;37.660;2022-08-11T00:21:58;10.70;;;3.40;;
64651;SDS011;51062;45.120;37.660;2022-08-11T00:24:35;9.88;;;3.42;;
64651;SDS011;51062;45.120;37.660;2022-08-11T00:27:05;11.68;;;3.58;;
64651;SDS011;51062;45.120;37.660;2022-08-11T00:29:32;12.43;;;3.20;;
64651;SDS011;51062;45.120;37.660;2022-08-11T00:32:00;9.23;;;3.08;;
64651;SDS011;51062;45.120;37.660;2022-08-11T00:34:33;8.73;;;3.45;;
64651;SDS011;51062;45.120;37.660;2022-08-11T00:37:06;12.70;;;4.30;;
64651;SDS011;51062;45.120;37.660;2022-08-11T00:39:41;12.93;;;3.05;;
64651;SDS011;51062;45.120;37.660;2022-08-11T01:01:49;10.10;;;3.60;;
64651;SDS011;51062;45.120;37.660;2022-08-11T01:10:19;8.40;;;3.70;;
64651;SDS011;51062;45.120;37.660;2022-08-11T01:13:14;12.73;;;4.22;;
64651;SDS011;51062;45.120;37.660;2022-08-11T02:03:34;12.95;;;5.95;;
64651;SDS011;51062;45.120;37.660;2022-08-11T02:11:54;175.65;;;65.25;;
64651;SDS011;51062;45.120;37.660;2022-08-11T02:14:44;53.97;;;17.10;;
64651;SDS011;51062;45.120;37.660;2022-08-11T02:17:34;17.58;;;5.30;;
64651;SDS011;51062;45.120;37.660;2022-08-11T02:20:29;17.08;;;5.18;;
64651;SDS011;51062;45.120;37.660;2022-08-11T02:26:06;14.88;;;5.45;;
64651;SDS011;51062;45.120;37.660;2022-08-11T02:39:41;23.58;;;5.95;;
64651;SDS011;51062;45.120;37.660;2022-08-11T02:57:28;21.40;;;5.40;;
64651;SDS011;51062;45.120;37.660;2022-08-11T03:00:04;19.55;;;5.40;;
64651;SDS011;51062;45.120;37.660;2022-08-11T03:14:18;24.65;;;8.80;;
64651;SDS011;51062;45.120;37.660;2022-08-11T03:22:36;137.93;;;43.22;;
64651;SDS011;51062;45.120;37.660;2022-08-11T03:28:00;184.30;;;62.22;;
64651;SDS011;51062;45.120;37.660;2022-08-11T03:30:47;614.53;;;238.50;;
64651;SDS011;51062;45.120;37.660;2022-08-11T03:36:04;197.00;;;65.22;;
64651;SDS011;51062;45.120;37.660;2022-08-11T03:39:00;321.13;;;106.10;;
64651;SDS011;51062;45.120;37.660;2022-08-11T03:55:17;288.02;;;119.00;;
64651;SDS011;51062;45.120;37.660;2022-08-11T04:28:41;17.88;;;6.03;;
64651;SDS011;51062;45.120;37.660;2022-08-11T04:34:21;75.78;;;23.25;;
64651;SDS011;51062;45.120;37.660;2022-08-11T04:37:19;92.25;;;31.45;;
64651;SDS011;51062;45.120;37.660;2022-08-11T04:49:12;101.85;;;32.30;;
64651;SDS011;51062;45.120;37.660;2022-08-11T05:07:31;23.85;;;9.07;;
64651;SDS011;51062;45.120;37.660;2022-08-11T05:16:41;22.92;;;5.93;;
64651;SDS011;51062;45.120;37.660;2022-08-11T05:19:35;17.23;;;7.38;;
64651;SDS011;51062;45.120;37.660;2022-08-11T05:22:20;22.58;;;5.07;;
64651;SDS011;51062;45.120;37.660;2022-08-11T05:25:14;20.52;;;6.53;;
64651;SDS011;51062;45.120;37.660;2022-08-11T05:28:02;19.42;;;5.95;;
64651;SDS011;51062;45.120;37.660;2022-08-11T05:31:09;11.57;;;5.47;;
64651;SDS011;51062;45.120;37.660;2022-08-11T05:33:57;22.00;;;6.22;;
64651;SDS011;51062;45.120;37.660;2022-08-11T05:37:04;27.33;;;7.20;;
64651;SDS011;51062;45.120;37.660;2022-08-11T05:43:00;16.38;;;5.43;;
64651;SDS011;51062;45.120;37.660;2022-08-11T05:45:59;16.58;;;5.60;;
64651;SDS011;51062;45.120;37.660;2022-08-11T05:48:46;24.25;;;7.75;;
64651;SDS011;51062;45.120;37.660;2022-08-11T05:51:33;23.15;;;7.32;;
64651;SDS011;51062;45.120;37.660;2022-08-11T05:54:19;16.27;;;5.50;;
64651;SDS011;51062;45.120;37.660;2022-08-11T05:57:04;22.05;;;7.30;;
64651;SDS011;51062;45.120;37.660;2022-08-11T05:59:31;15.98;;;6.00;;
64651;SDS011;51062;45.120;37.660;2022-08-11T06:02:02;27.13;;;6.32;;
64651;SDS011;51062;45.120;37.660;2022-08-11T06:04:30;18.98;;;6.18;;
64651;SDS011;51062;45.120;37.660;2022-08-11T06:07:00;23.63;;;5.38;;
64651;SDS011;51062;45.120;37.660;2022-08-11T06:09:34;18.77;;;6.07;;
64651;SDS011;51062;45.120;37.660;2022-08-11T06:12:06;16.52;;;5.80;;
64651;SDS011;51062;45.120;37.660;2022-08-11T06:14:40;21.65;;;5.55;;
64651;SDS011;51062;45.120;37.660;2022-08-11T06:17:09;12.63;;;5.45;;
64651;SDS011;51062;45.120;37.660;2022-08-11T06:19:39;30.42;;;5.88;;
64651;SDS011;51062;45.120;37.660;2022-08-11T06:22:09;21.73;;;7.00;;
64651;SDS011;51062;45.120;37.660;2022-08-11T06:24:38;23.40;;;7.75;;
64651;SDS011;51062;45.120;37.660;2022-08-11T06:27:06;26.60;;;5.22;;
64651;SDS011;51062;45.120;37.660;2022-08-11T06:29:36;23.80;;;5.60;;
64651;SDS011;51062;45.120;37.660;2022-08-11T06:32:11;20.42;;;6.00;;
64651;SDS011;51062;45.120;37.660;2022-08-11T06:34:41;22.55;;;7.85;;
64651;SDS011;51062;45.120;37.660;2022-08-11T06:40:06;19.83;;;5.50;;
64651;SDS011;51062;45.120;37.660;2022-08-11T06:47:46;23.35;;;9.60;;
64651;SDS011;51062;45.120;37.660;2022-08-11T06:50:17;23.27;;;7.60;;
64651;SDS011;51062;45.120;37.660;2022-08-11T06:53:04;19.60;;;6.25;;
64651;SDS011;51062;45.120;37.660;2022-08-11T06:55:34;16.25;;;5.65;;
64651;SDS011;51062;45.120;37.660;2022-08-11T06:58:21;32.30;;;6.70;;
64651;SDS011;51062;45.120;37.660;2022-08-11T07:01:10;18.45;;;5.65;;
64651;SDS011;51062;45.120;37.660;2022-08-11T07:03:47;23.38;;;6.50;;
64651;SDS011;51062;45.120;37.660;2022-08-11T07:06:48;23.38;;;5.35;;
64651;SDS011;51062;45.120;37.660;2022-08-11T07:12:57;14.27;;;5.40;;
64651;SDS011;51062;45.120;37.660;2022-08-11T07:15:44;25.65;;;6.65;;
64651;SDS011;51062;45.120;37.660;2022-08-11T07:18:19;19.20;;;5.95;;
64651;SDS011;51062;45.120;37.660;2022-08-11T07:21:35;20.77;;;5.63;;
64651;SDS011;51062;45.120;37.660;2022-08-11T07:24:24;16.45;;;5.72;;
64651;SDS011;51062;45.120;37.660;2022-08-11T07:27:13;10.73;;;6.00;;
64651;SDS011;51062;45.120;37.660;2022-08-11T07:30:02;16.70;;;6.72;;
64651;SDS011;51062;45.120;37.660;2022-08-11T07:32:32;14.45;;;5.38;;
64651;SDS011;51062;45.120;37.660;2022-08-11T07:35:15;12.95;;;5.72;;
64651;SDS011;51062;45.120;37.660;2022-08-11T07:37:46;20.98;;;6.10;;
64651;SDS011;51062;45.120;37.660;2022-08-11T07:40:22;27.95;;;5.32;;
64651;SDS011;51062;45.120;37.660;2022-08-11T07:42:49;17.52;;;5.28;;
64651;SDS011;51062;45.120;37.660;2022-08-11T07:45:17;41.50;;;6.13;;
64651;SDS011;51062;45.120;37.660;2022-08-11T07:48:02;28.08;;;5.55;;
64651;SDS011;51062;45.120;37.660;2022-08-11T07:50:48;17.52;;;4.68;;
64651;SDS011;51062;45.120;37.660;2022-08-11T07:53:33;13.00;;;5.30;;
64651;SDS011;51062;45.120;37.660;2022-08-11T07:56:02;11.30;;;4.80;;
64651;SDS011;51062;45.120;37.660;2022-08-11T07:58:35;13.68;;;4.93;;
64651;SDS011;51062;45.120;37.660;2022-08-11T08:01:21;22.23;;;4.72;;
64651;SDS011;51062;45.120;37.660;2022-08-11T08:04:08;11.60;;;4.63;;
64651;SDS011;51062;45.120;37.660;2022-08-11T08:06:55;13.07;;;4.50;;
64651;SDS011;51062;45.120;37.660;2022-08-11T08:09:40;10.77;;;4.97;;
64651;SDS011;51062;45.120;37.660;2022-08-11T08:12:26;12.65;;;4.38;;
64651;SDS011;51062;45.120;37.660;2022-08-11T08:15:13;13.70;;;4.82;;
64651;SDS011;51062;45.120;37.660;2022-08-11T08:18:00;13.82;;;4.93;;
64651;SDS011;51062;45.120;37.660;2022-08-11T08:20:35;10.95;;;4.35;;
64651;SDS011;51062;45.120;37.660;2022-08-11T08:23:09;28.63;;;6.10;;
64651;SDS011;51062;45.120;37.660;2022-08-11T08:25:40;11.07;;;4.82;;
64651;SDS011;51062;45.120;37.660;2022-08-11T08:28:11;18.67;;;4.93;;
64651;SDS011;51062;45.120;37.660;2022-08-11T08:30:41;9.05;;;4.88;;
64651;SDS011;51062;45.120;37.660;2022-08-11T08:33:26;9.77;;;3.45;;
64651;SDS011;51062;45.120;37.660;2022-08-11T08:36:01;14.07;;;4.45;;
64651;SDS011;51062;45.120;37.660;2022-08-11T08:38:39;23.70;;;5.63;;
64651;SDS011;51062;45.120;37.660;2022-08-11T08:41:07;12.43;;;4.55;;
64651;SDS011;51062;45.120;37.660;2022-08-11T08:43:35;19.33;;;4.72;;
64651;SDS011;51062;45.120;37.660;2022-08-11T08:46:03;13.65;;;4.38;;
64651;SDS011;51062;45.120;37.660;2022-08-11T08:48:33;16.65;;;4.35;;
64651;SDS011;51062;45.120;37.660;2022-08-11T08:51:01;11.10;;;4.65;;
64651;SDS011;51062;45.120;37.660;2022-08-11T08:53:51;17.73;;;4.68;;
64651;SDS011;51062;45.120;37.660;2022-08-11T08:56:24;16.20;;;4.63;;
64651;SDS011;51062;45.120;37.660;2022-08-11T08:58:52;53.15;;;8.25;;
64651;SDS011;51062;45.120;37.660;2022-08-11T09:01:20;15.98;;;4.70;;
64651;SDS011;51062;45.120;37.660;2022-08-11T09:03:49;16.48;;;6.68;;
64651;SDS011;51062;45.120;37.660;2022-08-11T09:06:17;12.15;;;5.30;;
64651;SDS011;51062;45.120;37.660;2022-08-11T09:08:44;15.73;;;4.78;;
64651;SDS011;51062;45.120;37.660;2022-08-11T09:11:11;12.43;;;4.32;;
64651;SDS011;51062;45.120;37.660;2022-08-11T09:13:57;25.45;;;5.25;;
64651;SDS011;51062;45.120;37.660;2022-08-11T09:16:25;17.10;;;4.97;;
64651;SDS011;51062;45.120;37.660;2022-08-11T09:18:52;13.45;;;4.25;;
64651;SDS011;51062;45.120;37.660;2022-08-11T09:21:19;9.43;;;3.40;;
64651;SDS011;51062;45.120;37.660;2022-08-11T09:23:48;13.57;;;3.75;;
64651;SDS011;51062;45.120;37.660;2022-08-11T09:26:34;9.45;;;3.08;;
64651;SDS011;51062;45.120;37.660;2022-08-11T09:29:25;7.63;;;3.13;;
64651;SDS011;51062;45.120;37.660;2022-08-11T09:31:53;7.85;;;3.20;;
64651;SDS011;51062;45.120;37.660;2022-08-11T09:34:20;9.75;;;2.67;;
64651;SDS011;51062;45.120;37.660;2022-08-11T09:36:47;7.82;;;2.90;;
64651;SDS011;51062;45.120;37.660;2022-08-11T09:39:35;8.48;;;3.15;;
64651;SDS011;51062;45.120;37.660;2022-08-11T09:42:21;5.97;;;3.22;;
64651;SDS011;51062;45.120;37.660;2022-08-11T09:45:09;8.27;;;3.10;;
64651;SDS011;51062;45.120;37.660;2022-08-11T09:47:36;8.85;;;3.17;;
64651;SDS011;51062;45.120;37.660;2022-08-11T09:50:04;8.57;;;3.15;;
64651;SDS011;51062;45.120;37.660;2022-08-11T09:52:37;11.82;;;3.50;;
64651;SDS011;51062;45.120;37.660;2022-08-11T09:55:04;12.80;;;3.22;;
64651;SDS011;51062;45.120;37.660;2022-08-11T09:57:41;17.10;;;5.13;;
64651;SDS011;51062;45.120;37.660;2022-08-11T10:00:33;13.63;;;3.92;;
64651;SDS011;51062;45.120;37.660;2022-08-11T10:03:17;8.52;;;3.30;;
64651;SDS011;51062;45.120;37.660;2022-08-11T10:05:50;8.23;;;2.88;;
64651;SDS011;51062;45.120;37.660;2022-08-11T10:08:40;7.40;;;2.85;;
64651;SDS011;51062;45.120;37.660;2022-08-11T10:11:08;11.43;;;2.95;;
64651;SDS011;51062;45.120;37.660;2022-08-11T10:13:40;8.15;;;3.15;;
64651;SDS011;51062;45.120;37.660;2022-08-11T10:16:28;19.33;;;3.67;;
64651;SDS011;51062;45.120;37.660;2022-08-11T10:18:59;16.45;;;3.10;;
64651;SDS011;51062;45.120;37.660;2022-08-11T10:21:32;10.75;;;3.00;;
64651;SDS011;51062;45.120;37.660;2022-08-11T10:24:04;8.45;;;3.15;;
64651;SDS011;51062;45.120;37.660;2022-08-11T10:26:51;5.78;;;2.83;;
64651;SDS011;51062;45.120;37.660;2022-08-11T10:29:31;7.20;;;2.88;;
64651;SDS011;51062;45.120;37.660;2022-08-11T10:32:26;5.80;;;2.20;;
64651;SDS011;51062;45.120;37.660;2022-08-11T10:35:13;6.63;;;2.60;;
64651;SDS011;51062;45.120;37.660;2022-08-11T10:37:41;4.60;;;2.53;;
64651;SDS011;51062;45.120;37.660;2022-08-11T10:40:13;5.15;;;2.28;;
64651;SDS011;51062;45.120;37.660;2022-08-11T10:42:40;5.57;;;2.85;;
64651;SDS011;51062;45.120;37.660;2022-08-11T10:45:26;6.78;;;2.58;;
64651;SDS011;51062;45.120;37.660;2022-08-11T10:48:13;5.55;;;2.25;;
64651;SDS011;51062;45.120;37.660;2022-08-11T10:50:43;9.77;;;2.63;;
64651;SDS011;51062;45.120;37.660;2022-08-11T10:53:29;4.57;;;2.30;;
64651;SDS011;51062;45.120;37.660;2022-08-11T10:56:16;3.83;;;2.50;;
64651;SDS011;51062;45.120;37.660;2022-08-11T10:59:21;8.80;;;2.60;;
64651;SDS011;51062;45.120;37.660;2022-08-11T11:01:51;5.45;;;2.38;;
64651;SDS011;51062;45.120;37.660;2022-08-11T11:04:23;7.93;;;2.63;;
64651;SDS011;51062;45.120;37.660;2022-08-11T11:07:20;5.60;;;2.75;;
64651;SDS011;51062;45.120;37.660;2022-08-11T11:09:49;6.63;;;2.70;;
64651;SDS011;51062;45.120;37.660;2022-08-11T11:12:28;7.78;;;2.72;;
64651;SDS011;51062;45.120;37.660;2022-08-11T11:15:33;8.48;;;2.67;;
64651;SDS011;51062;45.120;37.660;2022-08-11T11:18:36;8.30;;;3.17;;
64651;SDS011;51062;45.120;37.660;2022-08-11T11:34:22;15.35;;;4.03;;
64651;SDS011;51062;45.120;37.660;2022-08-11T11:37:08;21.80;;;4.97;;
64651;SDS011;51062;45.120;37.660;2022-08-11T11:39:41;12.63;;;4.95;;
64651;SDS011;51062;45.120;37.660;2022-08-11T11:42:09;12.43;;;4.68;;
64651;SDS011;51062;45.120;37.660;2022-08-11T11:44:38;8.05;;;3.90;;
64651;SDS011;51062;45.120;37.660;2022-08-11T11:47:28;11.95;;;3.95;;
64651;SDS011;51062;45.120;37.660;2022-08-11T11:49:55;9.82;;;4.22;;
64651;SDS011;51062;45.120;37.660;2022-08-11T11:52:22;17.88;;;4.60;;
64651;SDS011;51062;45.120;37.660;2022-08-11T11:54:50;34.28;;;4.97;;
64651;SDS011;51062;45.120;37.660;2022-08-11T11:57:19;13.27;;;4.50;;
64651;SDS011;51062;45.120;37.660;2022-08-11T12:00:05;12.85;;;4.70;;
64651;SDS011;51062;45.120;37.660;2022-08-11T12:02:53;9.02;;;4.45;;
64651;SDS011;51062;45.120;37.660;2022-08-11T12:05:20;12.40;;;5.70;;
64651;SDS011;51062;45.120;37.660;2022-08-11T12:07:47;14.13;;;5.38;;
64651;SDS011;51062;45.120;37.660;2022-08-11T12:10:32;13.18;;;5.57;;
64651;SDS011;51062;45.120;37.660;2022-08-11T12:12:59;15.95;;;5.57;;
64651;SDS011;51062;45.120;37.660;2022-08-11T12:15:45;58.40;;;6.57;;
64651;SDS011;51062;45.120;37.660;2022-08-11T12:18:12;17.05;;;5.18;;
64651;SDS011;51062;45.120;37.660;2022-08-11T12:20:40;16.70;;;5.07;;
64651;SDS011;51062;45.120;37.660;2022-08-11T12:23:07;24.10;;;5.97;;
64651;SDS011;51062;45.120;37.660;2022-08-11T12:28:37;10.73;;;4.90;;
64651;SDS011;51062;45.120;37.660;2022-08-11T12:31:04;9.50;;;4.30;;
64651;SDS011;51062;45.120;37.660;2022-08-11T12:33:35;13.65;;;4.00;;
64651;SDS011;51062;45.120;37.660;2022-08-11T12:36:02;13.15;;;4.03;;
64651;SDS011;51062;45.120;37.660;2022-08-11T12:38:29;11.43;;;4.35;;
64651;SDS011;51062;45.120;37.660;2022-08-11T12:40:59;21.10;;;4.72;;
64651;SDS011;51062;45.120;37.660;2022-08-11T12:43:45;8.90;;;3.90;;
64651;SDS011;51062;45.120;37.660;2022-08-11T12:46:34;21.10;;;4.63;;
64651;SDS011;51062;45.120;37.660;2022-08-11T12:49:05;9.82;;;4.50;;
64651;SDS011;51062;45.120;37.660;2022-08-11T12:52:09;12.27;;;4.60;;
64651;SDS011;51062;45.120;37.660;2022-08-11T12:54:45;16.92;;;5.25;;
64651;SDS011;51062;45.120;37.660;2022-08-11T13:00:11;15.98;;;4.50;;
64651;SDS011;51062;45.120;37.660;2022-08-11T13:02:58;17.70;;;5.00;;
64651;SDS011;51062;45.120;37.660;2022-08-11T13:05:43;7.97;;;3.63;;
64651;SDS011;51062;45.120;37.660;2022-08-11T13:08:12;9.10;;;4.30;;
64651;SDS011;51062;45.120;37.660;2022-08-11T13:10:42;12.50;;;5.10;;
64651;SDS011;51062;45.120;37.660;2022-08-11T13:13:29;23.08;;;4.95;;
64651;SDS011;51062;45.120;37.660;2022-08-11T13:15:56;11.93;;;5.28;;
64651;SDS011;51062;45.120;37.660;2022-08-11T13:18:23;18.40;;;5.35;;
64651;SDS011;51062;45.120;37.660;2022-08-11T13:20:52;18.48;;;5.88;;
64651;SDS011;51062;45.120;37.660;2022-08-11T13:23:20;25.20;;;5.07;;
64651;SDS011;51062;45.120;37.660;2022-08-11T13:25:48;27.88;;;6.80;;
64651;SDS011;51062;45.120;37.660;2022-08-11T13:28:16;26.02;;;6.72;;
64651;SDS011;51062;45.120;37.660;2022-08-11T13:30:45;24.23;;;6.18;;
64651;SDS011;51062;45.120;37.660;2022-08-11T13:33:32;11.00;;;5.90;;
64651;SDS011;51062;45.120;37.660;2022-08-11T13:36:04;22.40;;;6.65;;
64651;SDS011;51062;45.120;37.660;2022-08-11T13:38:31;15.90;;;5.88;;
64651;SDS011;51062;45.120;37.660;2022-08-11T13:40:59;20.73;;;5.90;;
64651;SDS011;51062;45.120;37.660;2022-08-11T13:43:25;10.50;;;5.43;;
64651;SDS011;51062;45.120;37.660;2022-08-11T13:45:53;16.20;;;5.70;;
64651;SDS011;51062;45.120;37.660;2022-08-11T13:48:40;16.33;;;5.43;;
64651;SDS011;51062;45.120;37.660;2022-08-11T13:51:07;21.98;;;5.38;;
64651;SDS011;51062;45.120;37.660;2022-08-11T13:53:55;24.42;;;5.90;;
64651;SDS011;51062;45.120;37.660;2022-08-11T13:56:26;23.02;;;5.15;;
64651;SDS011;51062;45.120;37.660;2022-08-11T13:58:53;24.20;;;6.15;;
64651;SDS011;51062;45.120;37.660;2022-08-11T14:01:20;21.98;;;5.53;;
64651;SDS011;51062;45.120;37.660;2022-08-11T14:03:51;29.13;;;5.32;;
64651;SDS011;51062;45.120;37.660;2022-08-11T14:06:18;19.80;;;5.40;;
64651;SDS011;51062;45.120;37.660;2022-08-11T14:08:46;14.02;;;5.75;;
64651;SDS011;51062;45.120;37.660;2022-08-11T14:11:16;23.50;;;6.45;;
64651;SDS011;51062;45.120;37.660;2022-08-11T14:16:33;22.25;;;6.55;;
64651;SDS011;51062;45.120;37.660;2022-08-11T14:19:06;26.42;;;7.03;;
64651;SDS011;51062;45.120;37.660;2022-08-11T14:21:37;32.00;;;7.35;;
64651;SDS011;51062;45.120;37.660;2022-08-11T14:24:26;33.22;;;6.63;;
64651;SDS011;51062;45.120;37.660;2022-08-11T14:26:54;32.95;;;6.07;;
64651;SDS011;51062;45.120;37.660;2022-08-11T14:29:21;17.70;;;5.38;;
64651;SDS011;51062;45.120;37.660;2022-08-11T14:31:54;27.00;;;5.80;;
64651;SDS011;51062;45.120;37.660;2022-08-11T14:34:23;19.65;;;6.35;;
64651;SDS011;51062;45.120;37.660;2022-08-11T14:36:57;14.23;;;5.20;;
64651;SDS011;51062;45.120;37.660;2022-08-11T14:39:26;75.35;;;9.48;;
64651;SDS011;51062;45.120;37.660;2022-08-11T14:42:01;26.83;;;7.32;;
64651;SDS011;51062;45.120;37.660;2022-08-11T14:44:51;25.00;;;5.78;;
64651;SDS011;51062;45.120;37.660;2022-08-11T14:47:42;27.85;;;6.95;;
64651;SDS011;51062;45.120;37.660;2022-08-11T14:50:11;20.60;;;7.07;;
64651;SDS011;51062;45.120;37.660;2022-08-11T14:52:44;35.70;;;6.80;;
64651;SDS011;51062;45.120;37.660;2022-08-11T14:55:26;36.10;;;7.18;;
64651;SDS011;51062;45.120;37.660;2022-08-11T14:58:18;22.35;;;6.32;;
64651;SDS011;51062;45.120;37.660;2022-08-11T15:00:51;39.97;;;8.90;;
64651;SDS011;51062;45.120;37.660;2022-08-11T15:03:19;27.48;;;7.43;;
64651;SDS011;51062;45.120;37.660;2022-08-11T15:05:47;22.80;;;7.28;;
64651;SDS011;51062;45.120;37.660;2022-08-11T15:08:18;18.65;;;7.13;;
64651;SDS011;51062;45.120;37.660;2022-08-11T15:10:45;23.67;;;8.10;;
64651;SDS011;51062;45.120;37.660;2022-08-11T15:13:17;19.13;;;7.25;;
64651;SDS011;51062;45.120;37.660;2022-08-11T15:15:44;30.58;;;8.48;;
64651;SDS011;51062;45.120;37.660;2022-08-11T15:18:29;26.98;;;7.97;;
64651;SDS011;51062;45.120;37.660;2022-08-11T15:20:56;35.72;;;8.55;;
64651;SDS011;51062;45.120;37.660;2022-08-11T15:23:41;40.35;;;9.00;;
64651;SDS011;51062;45.120;37.660;2022-08-11T15:26:31;26.17;;;9.25;;
64651;SDS011;51062;45.120;37.660;2022-08-11T15:29:21;41.80;;;10.05;;
64651;SDS011;51062;45.120;37.660;2022-08-11T15:32:08;39.78;;;9.65;;
64651;SDS011;51062;45.120;37.660;2022-08-11T15:34:57;26.60;;;10.05;;
64651;SDS011;51062;45.120;37.660;2022-08-11T15:37:43;31.85;;;9.25;;
64651;SDS011;51062;45.120;37.660;2022-08-11T15:40:34;48.83;;;10.13;;
64651;SDS011;51062;45.120;37.660;2022-08-11T15:46:19;44.00;;;11.45;;
64651;SDS011;51062;45.120;37.660;2022-08-11T15:48:51;33.15;;;9.50;;
64651;SDS011;51062;45.120;37.660;2022-08-11T15:53:58;37.88;;;14.60;;
64651;SDS011;51062;45.120;37.660;2022-08-11T15:56:30;44.33;;;13.00;;
64651;SDS011;51062;45.120;37.660;2022-08-11T15:58:57;35.08;;;11.13;;
64651;SDS011;51062;45.120;37.660;2022-08-11T16:01:45;200.18;;;16.58;;
64651;SDS011;51062;45.120;37.660;2022-08-11T16:04:31;44.03;;;10.20;;
64651;SDS011;51062;45.120;37.660;2022-08-11T16:07:05;43.28;;;10.18;;
64651;SDS011;51062;45.120;37.660;2022-08-11T16:09:56;27.70;;;9.15;;
64651;SDS011;51062;45.120;37.660;2022-08-11T16:12:25;40.15;;;9.95;;
64651;SDS011;51062;45.120;37.660;2022-08-11T16:14:57;42.90;;;11.25;;
64651;SDS011;51062;45.120;37.660;2022-08-11T16:17:46;46.78;;;13.73;;
64651;SDS011;51062;45.120;37.660;2022-08-11T16:20:16;64.50;;;21.02;;
64651;SDS011;51062;45.120;37.660;2022-08-11T16:22:48;68.65;;;22.40;;
64651;SDS011;51062;45.120;37.660;2022-08-11T16:25:21;75.60;;;25.98;;
64651;SDS011;51062;45.120;37.660;2022-08-11T16:27:50;122.68;;;43.03;;
64651;SDS011;51062;45.120;37.660;2022-08-11T16:30:18;276.10;;;95.43;;
64651;SDS011;51062;45.120;37.660;2022-08-11T16:32:45;155.77;;;56.50;;
64651;SDS011;51062;45.120;37.660;2022-08-11T16:35:18;82.43;;;26.90;;
64651;SDS011;51062;45.120;37.660;2022-08-11T16:38:06;44.22;;;14.95;;
64651;SDS011;51062;45.120;37.660;2022-08-11T16:40:52;117.72;;;40.13;;
64651;SDS011;51062;45.120;37.660;2022-08-11T16:43:24;58.88;;;21.27;;
64651;SDS011;51062;45.120;37.660;2022-08-11T16:46:16;155.27;;;49.72;;
64651;SDS011;51062;45.120;37.660;2022-08-11T16:49:09;98.55;;;33.33;;
64651;SDS011;51062;45.120;37.660;2022-08-11T16:51:40;89.63;;;30.67;;
64651;SDS011;51062;45.120;37.660;2022-08-11T16:54:06;46.70;;;19.35;;
64651;SDS011;51062;45.120;37.660;2022-08-11T16:56:34;50.33;;;13.13;;
64651;SDS011;51062;45.120;37.660;2022-08-11T16:59:29;45.20;;;13.50;;
64651;SDS011;51062;45.120;37.660;2022-08-11T17:02:10;37.58;;;14.05;;
64651;SDS011;51062;45.120;37.660;2022-08-11T17:05:11;43.45;;;13.65;;
64651;SDS011;51062;45.120;37.660;2022-08-11T17:07:59;64.15;;;20.83;;
64651;SDS011;51062;45.120;37.660;2022-08-11T17:10:49;53.53;;;16.40;;
64651;SDS011;51062;45.120;37.660;2022-08-11T17:16:13;43.78;;;12.85;;
64651;SDS011;51062;45.120;37.660;2022-08-11T17:21:30;44.03;;;13.43;;
64651;SDS011;51062;45.120;37.660;2022-08-11T17:24:05;43.55;;;14.77;;
64651;SDS011;51062;45.120;37.660;2022-08-11T17:26:37;38.22;;;12.93;;
64651;SDS011;51062;45.120;37.660;2022-08-11T17:29:40;46.05;;;12.18;;
64651;SDS011;51062;45.120;37.660;2022-08-11T17:32:14;44.33;;;13.98;;
64651;SDS011;51062;45.120;37.660;2022-08-11T17:35:07;50.35;;;17.77;;
64651;SDS011;51062;45.120;37.660;2022-08-11T17:37:55;50.15;;;16.52;;
64651;SDS011;51062;45.120;37.660;2022-08-11T17:40:22;43.15;;;16.05;;
64651;SDS011;51062;45.120;37.660;2022-08-11T17:42:53;55.33;;;19.20;;
64651;SDS011;51062;45.120;37.660;2022-08-11T17:45:41;81.72;;;23.38;;
64651;SDS011;51062;45.120;37.660;2022-08-11T17:48:27;66.47;;;22.25;;
64651;SDS011;51062;45.120;37.660;2022-08-11T17:51:06;72.50;;;24.25;;
64651;SDS011;51062;45.120;37.660;2022-08-11T17:53:39;65.22;;;24.63;;
64651;SDS011;51062;45.120;37.660;2022-08-11T17:56:30;79.68;;;29.13;;
64651;SDS011;51062;45.120;37.660;2022-08-11T17:59:16;64.30;;;25.63;;
64651;SDS011;51062;45.120;37.660;2022-08-11T18:02:03;84.13;;;30.90;;
64651;SDS011;51062;45.120;37.660;2022-08-11T18:04:50;128.07;;;38.53;;
64651;SDS011;51062;45.120;37.660;2022-08-11T18:07:17;112.93;;;39.28;;
64651;SDS011;51062;45.120;37.660;2022-08-11T18:10:05;135.98;;;45.13;;
64651;SDS011;51062;45.120;37.660;2022-08-11T18:13:10;127.57;;;43.25;;
64651;SDS011;51062;45.120;37.660;2022-08-11T18:15:57;122.93;;;39.38;;
64651;SDS011;51062;45.120;37.660;2022-08-11T18:21:28;107.85;;;37.72;;
64651;SDS011;51062;45.120;37.660;2022-08-11T18:24:37;109.47;;;33.33;;
64651;SDS011;51062;45.120;37.660;2022-08-11T18:27:25;87.07;;;27.15;;
64651;SDS011;51062;45.120;37.660;2022-08-11T18:30:13;80.50;;;27.17;;
64651;SDS011;51062;45.120;37.660;2022-08-11T18:32:59;72.97;;;22.63;;
64651;SDS011;51062;45.120;37.660;2022-08-11T18:35:49;68.78;;;20.45;;
64651;SDS011;51062;45.120;37.660;2022-08-11T18:38:38;60.00;;;20.65;;
64651;SDS011;51062;45.120;37.660;2022-08-11T18:41:26;48.67;;;16.13;;
64651;SDS011;51062;45.120;37.660;2022-08-11T18:44:12;60.33;;;15.80;;
64651;SDS011;51062;45.120;37.660;2022-08-11T18:47:01;49.33;;;14.05;;
64651;SDS011;51062;45.120;37.660;2022-08-11T18:49:51;40.17;;;14.75;;
64651;SDS011;51062;45.120;37.660;2022-08-11T18:52:38;47.00;;;14.60;;
64651;SDS011;51062;45.120;37.660;2022-08-11T18:55:25;52.42;;;15.68;;
64651;SDS011;51062;45.120;37.660;2022-08-11T18:58:13;43.47;;;15.20;;
64651;SDS011;51062;45.120;37.660;2022-08-11T19:01:00;37.25;;;14.52;;
64651;SDS011;51062;45.120;37.660;2022-08-11T19:03:46;46.33;;;14.55;;
64651;SDS011;51062;45.120;37.660;2022-08-11T19:06:33;39.08;;;13.52;;
64651;SDS011;51062;45.120;37.660;2022-08-11T19:09:19;46.80;;;13.65;;
64651;SDS011;51062;45.120;37.660;2022-08-11T19:17:37;75.07;;;21.92;;
64651;SDS011;51062;45.120;37.660;2022-08-11T19:20:26;86.18;;;26.00;;
64651;SDS011;51062;45.120;37.660;2022-08-11T19:23:14;78.93;;;23.10;;
64651;SDS011;51062;45.120;37.660;2022-08-11T19:26:02;73.03;;;21.95;;
64651;SDS011;51062;45.120;37.660;2022-08-11T19:28:47;57.17;;;20.05;;
64651;SDS011;51062;45.120;37.660;2022-08-11T19:31:34;52.22;;;17.63;;
64651;SDS011;51062;45.120;37.660;2022-08-11T19:34:20;60.53;;;18.45;;
64651;SDS011;51062;45.120;37.660;2022-08-11T19:37:07;58.65;;;18.40;;
64651;SDS011;51062;45.120;37.660;2022-08-11T19:39:57;55.97;;;18.70;;
64651;SDS011;51062;45.120;37.660;2022-08-11T19:42:49;53.60;;;17.65;;
64651;SDS011;51062;45.120;37.660;2022-08-11T19:45:35;43.47;;;16.80;;
64651;SDS011;51062;45.120;37.660;2022-08-11T19:48:21;40.60;;;15.50;;
64651;SDS011;51062;45.120;37.660;2022-08-11T19:51:09;48.67;;;14.90;;